Abington, Pennsylvania
Current Conditions -  °F | °C
As of 12:54 AM on Sunday 26 Oct 2014 (Local Time) from KPNE Reporting Station
Overcast Overcast  
Wind Chill: 16°   Ceiling: 8000
Heat Index: 16°   Visibility: 10mi
Dew Point:   Wind: 8mph
Humidity: 53%   Direction: 240°WSW
Pressure: 29.62"   Gusts: NA
Location:  40.12°N, 75.12°W
Report Text: KPNE 260454Z 24007KT 10SM BKN080 OVC090 16/06 A2962 RMK AO2 SLP029 T01560061 402110044
Loading
Personal Weather Stations






























Interactive Weather Map New forecast layout! Learn more

10-Day Weather Forecast

Advertisements
Track Severe Weather on mobile